Time;durP1;ratioP1;P1;durP2;ratioP2;P2;SDS_P1;SDS_P2;PMS_P1;PMS_P2;Temp;Humidity;BMP_temperature;BMP_pressure;BME280_temperature;BME280_humidity;BME280_pressure;Samples;Min_cycle;Max_cycle;Signal;HPM_P1;HPM_P2
2023/02/12 00:00:48;;;;;;;;;;;26.00;99.90;;;;;;5086357;28;20034;-69
2023/02/12 00:03:15;;;;;;;;;;;26.20;99.90;;;;;;5087083;28;20461;-69
2023/02/12 00:05:41;;;;;;;;;;;26.10;99.90;;;;;;5086475;28;19923;-70
2023/02/12 00:08:10;;;;;;;;;;;26.20;99.90;;;;;;5088199;28;19961;-75
2023/02/12 00:10:41;;;;;;;;;;;26.00;99.90;;;;;;5095061;28;20019;-69
2023/02/12 00:13:09;;;;;;;;;;;26.00;99.90;;;;;;5094716;28;19995;-74
2023/02/12 00:15:39;;;;;;;;;;;26.00;99.90;;;;;;5094119;28;19917;-67
2023/02/12 00:18:05;;;;;;;;;;;26.10;99.90;;;;;;5094893;28;19931;-71
2023/02/12 00:20:32;;;;;;;;;;;26.00;99.90;;;;;;5094793;28;19968;-71
2023/02/12 00:22:59;;;;;;;;;;;26.00;99.90;;;;;;5094694;28;19912;-71
2023/02/12 00:25:25;;;;;;;;;;;26.10;99.90;;;;;;5094462;28;20381;-69
2023/02/12 00:27:52;;;;;;;;;;;26.00;99.90;;;;;;5094915;28;19915;-67
2023/02/12 00:30:19;;;;;;;;;;;26.20;99.90;;;;;;5094516;28;19964;-67
2023/02/12 00:32:45;;;;;;;;;;;26.20;99.90;;;;;;5094345;28;19908;-77
2023/02/12 00:35:12;;;;;;;;;;;26.00;99.90;;;;;;5094497;28;19931;-73
2023/02/12 00:37:39;;;;;;;;;;;26.20;99.90;;;;;;5094510;28;19915;-69
2023/02/12 00:40:06;;;;;;;;;;;26.20;99.90;;;;;;5094573;28;19930;-74
2023/02/12 00:42:32;;;;;;;;;;;26.20;99.90;;;;;;5094680;28;19919;-76
2023/02/12 00:44:59;;;;;;;;;;;26.40;99.90;;;;;;5094341;28;20315;-69
2023/02/12 00:47:26;;;;;;;;;;;26.40;99.90;;;;;;5094001;28;20038;-66
2023/02/12 00:49:52;;;;;;;;;;;26.40;99.90;;;;;;5094558;28;19947;-73
2023/02/12 00:52:19;;;;;;;;;;;26.70;99.90;;;;;;5094481;28;19919;-67
2023/02/12 00:54:45;;;;;;;;;;;26.60;99.90;;;;;;5093927;28;20514;-73
2023/02/12 00:57:12;;;;;;;;;;;26.70;99.90;;;;;;5094167;28;19912;-78
2023/02/12 00:59:41;;;;;;;;;;;26.60;99.90;;;;;;5126678;27;19915;-76
2023/02/12 01:02:07;;;;;;;;;;;26.10;99.90;;;;;;5079314;28;19927;-73
2023/02/12 01:04:34;;;;;;;;;;;25.60;99.90;;;;;;5073598;28;19912;-69
2023/02/12 01:07:00;;;;;;;;;;;25.70;99.90;;;;;;5073700;28;19939;-70
2023/02/12 01:09:27;;;;;;;;;;;25.80;99.90;;;;;;5073267;28;19908;-66
2023/02/12 01:11:54;;;;;;;;;;;25.80;99.90;;;;;;5073175;28;20370;-66
2023/02/12 01:14:20;;;;;;;;;;;25.80;99.90;;;;;;5072896;28;19955;-69
2023/02/12 01:16:47;;;;;;;;;;;25.70;99.90;;;;;;5072903;28;19966;-66
2023/02/12 01:19:14;;;;;;;;;;;26.00;99.90;;;;;;5073195;28;19908;-68
2023/02/12 01:21:40;;;;;;;;;;;26.30;99.90;;;;;;5073023;28;19955;-67
2023/02/12 01:24:07;;;;;;;;;;;26.50;99.90;;;;;;5072790;28;19919;-72
2023/02/12 01:26:34;;;;;;;;;;;26.70;99.90;;;;;;5072840;28;19912;-70
2023/02/12 01:29:01;;;;;;;;;;;27.30;99.90;;;;;;5073112;28;19908;-68
2023/02/12 01:31:29;;;;;;;;;;;27.50;99.90;;;;;;5072566;28;19963;-65
2023/02/12 01:33:57;;;;;;;;;;;27.40;99.90;;;;;;5072691;28;19916;-69
2023/02/12 01:36:24;;;;;;;;;;;27.30;99.90;;;;;;5072852;28;19909;-67
2023/02/12 01:38:51;;;;;;;;;;;27.10;99.90;;;;;;5072992;28;19930;-66
2023/02/12 01:41:19;;;;;;;;;;;27.20;99.90;;;;;;5072652;28;19917;-71
2023/02/12 01:44:04;;;;;;;;;;;27.30;99.90;;;;;;5072686;28;19930;-72
2023/02/12 01:46:31;;;;;;;;;;;27.50;99.90;;;;;;5071997;28;20384;-72
2023/02/12 01:48:58;;;;;;;;;;;27.40;99.90;;;;;;5072986;28;19908;-73
2023/02/12 01:51:25;;;;;;;;;;;27.60;99.90;;;;;;5072447;28;19920;-69
2023/02/12 01:53:53;;;;;;;;;;;27.60;99.90;;;;;;5072523;28;19912;-72
2023/02/12 01:56:21;;;;;;;;;;;27.20;99.90;;;;;;5072777;28;19931;-71
2023/02/12 01:58:49;;;;;;;;;;;27.30;99.90;;;;;;5072768;28;19916;-76
2023/02/12 02:01:18;;;;;;;;;;;27.20;99.90;;;;;;5079460;28;19928;-74
2023/02/12 02:03:46;;;;;;;;;;;27.40;99.90;;;;;;5092684;28;19915;-72
2023/02/12 02:06:14;;;;;;;;;;;27.30;99.90;;;;;;5092924;28;19991;-74
2023/02/12 02:08:41;;;;;;;;;;;27.10;99.90;;;;;;5092859;28;19912;-71
2023/02/12 02:16:40;;;;;;;;;;;26.50;99.90;;;;;;5092941;28;20012;-74
2023/02/12 02:19:22;;;;;;;;;;;26.30;99.90;;;;;;5092531;28;20357;-76
2023/02/12 02:22:01;;;;;;;;;;;26.30;99.90;;;;;;5092656;28;19923;-66
2023/02/12 02:24:43;;;;;;;;;;;26.50;99.90;;;;;;5092176;28;19912;-74
2023/02/12 02:27:12;;;;;;;;;;;26.50;99.90;;;;;;5092379;28;19912;-75
2023/02/12 02:29:51;;;;;;;;;;;26.60;99.90;;;;;;5092229;28;19918;-74
2023/02/12 02:32:25;;;;;;;;;;;27.00;99.90;;;;;;5092512;28;19938;-76
2023/02/12 02:35:00;;;;;;;;;;;27.10;99.90;;;;;;5092542;28;19924;-75
2023/02/12 02:37:27;;;;;;;;;;;26.70;99.90;;;;;;5092287;28;20002;-69
2023/02/12 02:39:59;;;;;;;;;;;26.50;99.90;;;;;;5092370;28;19914;-74
2023/02/12 02:42:35;;;;;;;;;;;26.40;99.90;;;;;;5091839;28;20297;-71
2023/02/12 02:45:05;;;;;;;;;;;26.40;99.90;;;;;;5091581;28;20423;-72
2023/02/12 02:47:40;;;;;;;;;;;26.40;99.90;;;;;;5091911;28;19912;-75
2023/02/12 02:50:13;;;;;;;;;;;26.30;99.90;;;;;;5083394;28;20366;-69
2023/02/12 02:52:42;;;;;;;;;;;26.30;99.90;;;;;;5084036;28;19973;-66
2023/02/12 02:55:10;;;;;;;;;;;26.40;99.90;;;;;;5083717;28;20369;-72
2023/02/12 02:58:06;;;;;;;;;;;26.40;99.90;;;;;;5083583;28;19947;-66
2023/02/12 03:00:32;;;;;;;;;;;26.60;99.90;;;;;;5062402;28;19928;-67
2023/02/12 03:03:02;;;;;;;;;;;26.50;99.90;;;;;;5083280;28;19920;-68
2023/02/12 03:05:30;;;;;;;;;;;26.50;99.90;;;;;;5083275;28;20639;-71
2023/02/12 03:08:06;;;;;;;;;;;26.50;99.90;;;;;;5083896;28;19912;-72
2023/02/12 03:10:35;;;;;;;;;;;26.40;99.90;;;;;;5083979;28;19942;-69
2023/02/12 03:13:06;;;;;;;;;;;26.50;99.90;;;;;;5092049;28;19935;-71
2023/02/12 03:15:38;;;;;;;;;;;26.50;99.90;;;;;;5091341;28;20262;-71
2023/02/12 03:18:09;;;;;;;;;;;26.60;99.90;;;;;;5091943;28;19912;-69
2023/02/12 03:20:41;;;;;;;;;;;26.50;99.90;;;;;;5091599;28;19928;-71
2023/02/12 03:23:13;;;;;;;;;;;26.50;99.90;;;;;;5091971;28;19908;-66
2023/02/12 03:25:49;;;;;;;;;;;26.30;99.90;;;;;;5090124;28;20301;-69
2023/02/12 03:28:28;;;;;;;;;;;26.30;99.90;;;;;;5091816;28;19915;-73
2023/02/12 03:31:09;;;;;;;;;;;26.30;99.90;;;;;;5091764;28;19908;-68
2023/02/12 03:33:42;;;;;;;;;;;26.60;99.90;;;;;;5091167;28;19908;-74
2023/02/12 03:36:22;;;;;;;;;;;26.90;99.90;;;;;;5091621;28;19912;-74
2023/02/12 03:38:53;;;;;;;;;;;26.70;99.90;;;;;;5091705;28;19908;-76
2023/02/12 03:41:22;;;;;;;;;;;26.50;99.90;;;;;;5091563;28;20053;-67
2023/02/12 03:43:49;;;;;;;;;;;26.30;99.90;;;;;;5091440;28;19908;-67
2023/02/12 03:46:41;;;;;;;;;;;26.40;99.90;;;;;;5091726;28;20008;-71
2023/02/12 03:49:21;;;;;;;;;;;26.40;99.90;;;;;;5082753;28;19912;-75
2023/02/12 03:51:48;;;;;;;;;;;26.50;99.90;;;;;;5091571;28;19908;-74
2023/02/12 03:54:18;;;;;;;;;;;26.50;99.90;;;;;;5091259;28;19912;-66
2023/02/12 03:56:51;;;;;;;;;;;26.60;99.90;;;;;;5091398;28;19968;-69
2023/02/12 03:59:19;;;;;;;;;;;26.60;99.90;;;;;;5091589;28;20011;-75
2023/02/12 04:01:47;;;;;;;;;;;26.80;99.90;;;;;;5091245;28;19921;-76
2023/02/12 04:04:14;;;;;;;;;;;26.50;99.90;;;;;;5091225;28;19938;-73
2023/02/12 04:06:40;;;;;;;;;;;26.40;99.90;;;;;;5091371;28;19955;-68
2023/02/12 04:09:09;;;;;;;;;;;26.20;99.90;;;;;;5093632;28;19908;-68
2023/02/12 04:11:53;;;;;;;;;;;26.40;99.90;;;;;;5095006;28;19919;-72
2023/02/12 04:14:26;;;;;;;;;;;26.50;99.90;;;;;;5094556;28;19912;-68
2023/02/12 04:17:01;;;;;;;;;;;26.40;99.90;;;;;;5095110;28;19908;-72
2023/02/12 04:19:33;;;;;;;;;;;26.40;99.90;;;;;;5094709;28;19931;-76
2023/02/12 04:22:18;;;;;;;;;;;26.60;99.90;;;;;;5095025;28;19927;-71
2023/02/12 04:24:53;;;;;;;;;;;26.40;99.90;;;;;;5094743;28;19943;-75
2023/02/12 04:27:20;;;;;;;;;;;26.80;99.90;;;;;;5094639;28;19954;-73
2023/02/12 04:30:08;;;;;;;;;;;27.00;99.90;;;;;;5094786;28;20366;-77
2023/02/12 04:32:40;;;;;;;;;;;27.00;99.90;;;;;;5094821;28;19916;-73
2023/02/12 04:35:14;;;;;;;;;;;26.60;99.90;;;;;;5094387;28;20014;-72
2023/02/12 04:37:43;;;;;;;;;;;26.60;99.90;;;;;;5094807;28;20140;-74
2023/02/12 04:40:14;;;;;;;;;;;26.20;99.90;;;;;;5094619;28;20262;-74
2023/02/12 04:42:48;;;;;;;;;;;26.20;99.90;;;;;;5094747;28;19927;-75
2023/02/12 04:45:19;;;;;;;;;;;26.20;99.90;;;;;;5094137;28;19941;-68
2023/02/12 04:47:46;;;;;;;;;;;26.50;99.90;;;;;;5094456;28;19908;-69
2023/02/12 04:50:13;;;;;;;;;;;26.60;99.90;;;;;;5094769;28;19915;-73
2023/02/12 04:52:40;;;;;;;;;;;26.70;99.90;;;;;;5094437;28;19935;-71
2023/02/12 04:55:10;;;;;;;;;;;26.60;99.90;;;;;;5073827;28;19955;-74
2023/02/12 04:57:37;;;;;;;;;;;26.60;99.90;;;;;;5074051;27;19908;-69
2023/02/12 05:00:08;;;;;;;;;;;26.50;99.90;;;;;;5040693;28;20054;-76
2023/02/12 05:02:35;;;;;;;;;;;26.20;99.90;;;;;;5015982;28;19928;-70
2023/02/12 05:05:01;;;;;;;;;;;26.00;99.90;;;;;;5013967;28;20287;-74
2023/02/12 05:07:28;;;;;;;;;;;25.80;99.90;;;;;;5013888;28;19963;-76
2023/02/12 05:09:55;;;;;;;;;;;25.80;99.90;;;;;;5013422;28;20342;-72
2023/02/12 05:12:21;;;;;;;;;;;25.70;99.90;;;;;;5014080;28;19914;-75
2023/02/12 05:14:48;;;;;;;;;;;25.70;99.90;;;;;;5013550;28;19910;-71
2023/02/12 05:17:15;;;;;;;;;;;25.60;99.90;;;;;;5014003;28;19914;-74
2023/02/12 05:19:41;;;;;;;;;;;25.70;99.90;;;;;;5013325;28;19984;-73
2023/02/12 05:22:08;;;;;;;;;;;25.90;99.90;;;;;;5013753;28;19921;-74
2023/02/12 05:24:35;;;;;;;;;;;26.00;99.90;;;;;;5013416;28;19910;-71
2023/02/12 05:27:01;;;;;;;;;;;25.80;99.90;;;;;;5013659;28;19913;-71
2023/02/12 05:29:28;;;;;;;;;;;25.80;99.90;;;;;;5013102;28;20004;-75
2023/02/12 05:31:54;;;;;;;;;;;26.00;99.90;;;;;;5013783;28;19913;-76
2023/02/12 05:34:21;;;;;;;;;;;26.10;99.90;;;;;;5013364;28;20384;-67
2023/02/12 05:36:48;;;;;;;;;;;26.10;99.90;;;;;;5013654;28;19968;-74
2023/02/12 05:39:15;;;;;;;;;;;26.20;99.90;;;;;;5012948;28;19924;-73
2023/02/12 05:41:42;;;;;;;;;;;26.30;99.90;;;;;;5013126;28;19951;-73
2023/02/12 05:44:10;;;;;;;;;;;26.20;99.90;;;;;;5013222;28;19914;-75
2023/02/12 05:46:37;;;;;;;;;;;26.10;99.90;;;;;;4995823;28;20333;-71
2023/02/12 05:49:04;;;;;;;;;;;26.00;99.90;;;;;;5012919;28;19918;-75
2023/02/12 05:51:31;;;;;;;;;;;25.90;99.90;;;;;;5013145;28;19920;-75
2023/02/12 05:54:02;;;;;;;;;;;25.90;99.90;;;;;;5013043;28;19949;-69
2023/02/12 05:56:30;;;;;;;;;;;25.80;99.90;;;;;;4995692;28;19992;-73
2023/02/12 05:59:02;;;;;;;;;;;25.70;99.90;;;;;;5012675;28;19960;-69
2023/02/12 06:01:33;;;;;;;;;;;25.70;99.90;;;;;;5020966;28;20039;-68
2023/02/12 06:04:01;;;;;;;;;;;25.70;99.90;;;;;;5032273;28;19979;-68
2023/02/12 06:06:28;;;;;;;;;;;25.70;99.90;;;;;;5032281;28;19959;-73
2023/02/12 06:08:56;;;;;;;;;;;25.60;99.90;;;;;;5031966;28;19917;-74
2023/02/12 06:11:22;;;;;;;;;;;25.70;99.90;;;;;;5032398;28;19910;-74
2023/02/12 06:13:50;;;;;;;;;;;25.70;99.90;;;;;;5032083;28;19913;-73
2023/02/12 06:16:17;;;;;;;;;;;25.60;99.90;;;;;;5032435;28;19995;-75
2023/02/12 06:18:44;;;;;;;;;;;25.50;99.90;;;;;;5032237;28;19909;-73
2023/02/12 06:21:11;;;;;;;;;;;25.30;99.90;;;;;;5032240;28;19921;-71
2023/02/12 06:23:37;;;;;;;;;;;25.30;99.90;;;;;;5031857;28;20366;-72
2023/02/12 06:26:04;;;;;;;;;;;25.30;99.90;;;;;;5032276;28;19913;-67
2023/02/12 06:28:31;;;;;;;;;;;25.20;99.90;;;;;;5031947;28;19909;-71
2023/02/12 06:30:57;;;;;;;;;;;25.10;99.90;;;;;;5031547;28;19920;-72
2023/02/12 06:33:24;;;;;;;;;;;24.90;99.90;;;;;;5031739;28;19916;-76
2023/02/12 06:35:51;;;;;;;;;;;25.00;99.90;;;;;;5031973;28;19909;-75
2023/02/12 06:38:17;;;;;;;;;;;25.00;99.90;;;;;;5032059;28;19909;-70
2023/02/12 06:40:44;;;;;;;;;;;24.90;99.90;;;;;;5032038;28;19928;-73
2023/02/12 06:43:11;;;;;;;;;;;25.00;99.90;;;;;;5031790;28;20260;-74
2023/02/12 06:45:37;;;;;;;;;;;25.00;99.90;;;;;;5031219;28;19949;-70
2023/02/12 06:48:04;;;;;;;;;;;24.90;99.90;;;;;;5031988;28;20026;-76
2023/02/12 06:50:31;;;;;;;;;;;24.70;99.90;;;;;;5029138;28;20412;-73
2023/02/12 06:52:58;;;;;;;;;;;24.80;99.90;;;;;;5030704;28;19944;-71
